createdAt,value
2022-10-18T00:00:48.364Z,16.40
2022-10-18T00:03:15.698Z,16.30
2022-10-18T00:05:42.343Z,16.30
2022-10-18T00:08:08.980Z,16.40
2022-10-18T00:10:35.606Z,16.30
2022-10-18T00:13:02.307Z,16.40
2022-10-18T00:15:28.949Z,16.40
2022-10-18T00:17:55.581Z,16.40
2022-10-18T00:20:22.805Z,16.40
2022-10-18T00:22:49.405Z,16.40
2022-10-18T00:25:16.108Z,16.40
2022-10-18T00:27:42.703Z,16.40
2022-10-18T00:30:10.141Z,16.30
2022-10-18T00:32:37.766Z,16.40
2022-10-18T00:35:05.444Z,16.50
2022-10-18T00:37:33.326Z,16.40
2022-10-18T00:40:00.347Z,16.60
2022-10-18T00:42:31.259Z,16.60
2022-10-18T00:45:18.130Z,16.70
2022-10-18T00:47:49.185Z,16.80
2022-10-18T00:50:16.280Z,17.00
2022-10-18T00:52:46.598Z,17.20
2022-10-18T00:55:13.396Z,17.30
2022-10-18T00:57:42.646Z,17.50
2022-10-18T01:00:10.416Z,18.40
2022-10-18T01:02:37.806Z,17.80
2022-10-18T01:05:05.232Z,17.80
2022-10-18T01:07:48.995Z,17.90
2022-10-18T01:10:25.816Z,18.00
2022-10-18T01:13:01.911Z,18.10
2022-10-18T01:15:31.671Z,18.10
2022-10-18T01:18:09.112Z,18.30
2022-10-18T01:20:59.198Z,18.30
2022-10-18T01:23:42.319Z,18.20
2022-10-18T01:26:20.266Z,18.10
2022-10-18T01:28:57.812Z,18.30
2022-10-18T01:31:30.749Z,18.30
2022-10-18T01:33:59.705Z,18.20
2022-10-18T01:36:30.252Z,18.20
2022-10-18T01:39:00.682Z,18.10
2022-10-18T01:41:28.562Z,18.10
2022-10-18T01:43:58.840Z,18.00
2022-10-18T01:46:27.585Z,18.10
2022-10-18T01:48:54.998Z,18.00
2022-10-18T01:51:24.865Z,18.00
2022-10-18T01:53:51.589Z,18.00
2022-10-18T01:56:24.739Z,18.00
2022-10-18T01:59:11.380Z,18.00
2022-10-18T02:01:47.082Z,18.00
2022-10-18T02:04:22.855Z,17.90
2022-10-18T02:06:54.487Z,18.00
2022-10-18T02:09:29.146Z,20.30
2022-10-18T02:11:57.194Z,17.90
2022-10-18T02:14:26.134Z,17.90
2022-10-18T02:16:56.554Z,17.90
2022-10-18T02:19:28.171Z,17.70
2022-10-18T02:21:57.066Z,18.00
2022-10-18T02:24:26.934Z,17.90
2022-10-18T02:26:53.576Z,17.80
2022-10-18T02:29:20.200Z,17.80
2022-10-18T02:31:49.707Z,18.00
2022-10-18T02:34:21.967Z,17.80
2022-10-18T02:36:52.607Z,17.80
2022-10-18T02:39:22.713Z,17.80
2022-10-18T02:41:49.759Z,17.80
2022-10-18T02:44:16.347Z,17.80
2022-10-18T02:46:43.183Z,18.10
2022-10-18T02:49:10.102Z,17.70
2022-10-18T02:51:37.333Z,17.80
2022-10-18T02:54:04.212Z,17.80
2022-10-18T02:56:30.794Z,17.70
2022-10-18T02:58:57.378Z,17.70
2022-10-18T03:01:23.958Z,17.70
2022-10-18T03:03:50.783Z,17.60
2022-10-18T03:06:17.423Z,17.70
2022-10-18T03:08:44.708Z,17.70
2022-10-18T03:11:11.297Z,17.80
2022-10-18T03:13:37.848Z,17.80
2022-10-18T03:16:04.891Z,17.60
2022-10-18T03:18:31.467Z,17.60
2022-10-18T03:20:58.194Z,17.50
2022-10-18T03:23:24.822Z,17.50
2022-10-18T03:25:52.025Z,17.70
2022-10-18T03:28:18.635Z,17.50
2022-10-18T03:30:45.222Z,17.50
2022-10-18T03:33:11.807Z,17.40
2022-10-18T03:35:38.371Z,17.40
2022-10-18T03:38:04.926Z,17.50
2022-10-18T03:43:03.794Z,17.20
2022-10-18T03:45:31.433Z,17.40
2022-10-18T03:47:58.414Z,17.30
2022-10-18T03:50:27.884Z,17.20
2022-10-18T03:52:54.921Z,17.30
2022-10-18T03:55:21.561Z,17.30
2022-10-18T03:57:48.432Z,17.20
2022-10-18T04:00:16.014Z,17.20
2022-10-18T04:02:42.566Z,17.10
2022-10-18T04:05:09.633Z,18.60
2022-10-18T04:10:04.257Z,17.10
2022-10-18T04:12:30.985Z,17.10
2022-10-18T04:14:57.665Z,17.00
2022-10-18T04:17:24.940Z,17.00
2022-10-18T04:19:51.484Z,17.10
2022-10-18T04:22:18.031Z,17.00
2022-10-18T04:24:44.598Z,16.90
2022-10-18T04:27:11.175Z,17.00
2022-10-18T04:29:37.765Z,16.90
2022-10-18T04:32:04.685Z,16.90
2022-10-18T04:34:31.953Z,16.90
2022-10-18T04:36:58.535Z,16.70
2022-10-18T04:39:25.211Z,16.80
2022-10-18T04:41:51.790Z,16.70
2022-10-18T04:44:18.315Z,16.80
2022-10-18T04:46:48.030Z,16.90
2022-10-18T04:49:14.616Z,16.80
2022-10-18T04:51:41.820Z,16.80
2022-10-18T04:54:08.394Z,16.70
2022-10-18T04:56:34.972Z,16.70
2022-10-18T04:59:03.188Z,16.60
2022-10-18T05:01:30.184Z,16.70
2022-10-18T05:03:56.818Z,16.70
2022-10-18T05:06:23.711Z,16.70
2022-10-18T05:08:51.006Z,16.60
2022-10-18T05:11:17.659Z,16.70
2022-10-18T05:13:46.093Z,16.70
2022-10-18T05:16:15.641Z,16.70
2022-10-18T05:18:42.742Z,16.70
2022-10-18T05:21:09.435Z,16.40
2022-10-18T05:23:36.085Z,16.40
2022-10-18T05:26:03.981Z,16.60
2022-10-18T05:28:46.226Z,16.60
2022-10-18T05:31:12.878Z,16.60
2022-10-18T05:33:39.534Z,16.60
2022-10-18T05:36:06.824Z,16.30
2022-10-18T05:38:33.529Z,16.50
2022-10-18T05:41:03.253Z,16.60
2022-10-18T05:43:30.465Z,16.60
2022-10-18T05:45:57.214Z,16.50
2022-10-18T05:48:24.069Z,16.60
2022-10-18T05:50:50.793Z,16.60
2022-10-18T05:53:36.777Z,16.50
2022-10-18T05:56:04.901Z,16.40
2022-10-18T05:58:32.166Z,16.40
2022-10-18T06:00:59.724Z,16.40
2022-10-18T06:03:27.144Z,16.40
2022-10-18T06:05:58.667Z,16.40
2022-10-18T06:08:25.315Z,16.40
2022-10-18T06:10:52.241Z,16.30
2022-10-18T06:13:18.971Z,16.40
2022-10-18T06:15:46.170Z,16.40
2022-10-18T06:18:12.837Z,16.40
2022-10-18T06:20:39.376Z,16.50
2022-10-18T06:23:06.776Z,16.50
2022-10-18T06:25:33.336Z,16.50
2022-10-18T06:27:59.873Z,16.70
2022-10-18T06:30:26.617Z,16.40
2022-10-18T06:32:53.966Z,16.40
2022-10-18T06:35:20.536Z,16.40
2022-10-18T06:37:47.086Z,16.40
2022-10-18T06:40:13.677Z,16.40
2022-10-18T06:42:40.265Z,16.40
2022-10-18T06:45:08.208Z,16.40
2022-10-18T06:47:34.778Z,16.40
2022-10-18T06:50:02.044Z,16.40
2022-10-18T06:52:28.769Z,16.50
2022-10-18T06:54:55.500Z,16.50
2022-10-18T06:57:22.108Z,16.50
2022-10-18T06:59:50.505Z,16.50
2022-10-18T07:02:17.479Z,16.60
2022-10-18T07:04:44.134Z,16.50
2022-10-18T07:07:11.416Z,16.60
2022-10-18T07:09:38.126Z,16.50
2022-10-18T07:12:05.002Z,16.50
2022-10-18T07:14:34.998Z,16.50
2022-10-18T07:17:01.737Z,16.60
2022-10-18T07:19:28.319Z,16.30
2022-10-18T07:21:54.869Z,16.40
2022-10-18T07:24:22.086Z,16.30
2022-10-18T07:26:48.658Z,16.40
2022-10-18T07:29:15.330Z,16.40
2022-10-18T07:31:41.900Z,16.40
2022-10-18T07:34:11.971Z,16.40
2022-10-18T07:36:38.651Z,16.40
2022-10-18T07:39:05.711Z,16.50
2022-10-18T07:41:33.480Z,16.50
2022-10-18T07:44:00.829Z,16.50
2022-10-18T07:46:27.368Z,16.50
2022-10-18T07:48:54.845Z,16.60
2022-10-18T07:51:21.724Z,16.60
2022-10-18T07:53:48.602Z,16.60
2022-10-18T07:56:17.393Z,16.60
2022-10-18T07:58:45.502Z,16.60
2022-10-18T08:01:13.836Z,16.60
2022-10-18T08:03:41.893Z,16.60
2022-10-18T08:06:10.199Z,16.90
2022-10-18T08:08:38.133Z,16.60
2022-10-18T08:11:06.911Z,16.50
2022-10-18T08:13:34.355Z,16.60
2022-10-18T08:16:03.234Z,16.80
2022-10-18T08:18:31.020Z,15.70
2022-10-18T08:21:00.133Z,16.40
2022-10-18T08:23:26.849Z,16.20
2022-10-18T08:25:53.715Z,16.50
2022-10-18T08:28:20.336Z,16.80
2022-10-18T08:30:46.969Z,16.10
2022-10-18T08:33:14.275Z,16.50
2022-10-18T08:35:40.826Z,16.60
2022-10-18T08:38:15.131Z,16.60
2022-10-18T08:40:44.816Z,16.50
2022-10-18T08:43:22.292Z,16.40
2022-10-18T08:45:50.646Z,16.40
2022-10-18T08:48:23.091Z,16.40
2022-10-18T08:50:51.461Z,17.70
2022-10-18T08:53:24.068Z,16.30
2022-10-18T08:55:55.035Z,16.20
2022-10-18T08:58:23.380Z,16.20
2022-10-18T09:01:00.982Z,16.30
2022-10-18T09:03:48.318Z,16.40
2022-10-18T09:06:23.568Z,16.40
2022-10-18T09:09:19.569Z,16.40
2022-10-18T09:11:58.138Z,16.30
2022-10-18T09:14:57.482Z,16.20
2022-10-18T09:17:31.101Z,16.10
2022-10-18T09:20:09.667Z,16.10
2022-10-18T09:22:48.115Z,16.00
2022-10-18T09:25:19.234Z,16.00
2022-10-18T09:27:55.591Z,16.00
2022-10-18T09:30:45.199Z,16.00
2022-10-18T09:33:33.880Z,16.30
2022-10-18T09:36:03.232Z,16.10
2022-10-18T09:38:34.172Z,16.00
2022-10-18T09:41:07.733Z,16.00
2022-10-18T09:43:45.562Z,16.00
2022-10-18T09:46:15.022Z,15.90
2022-10-18T09:48:46.419Z,15.90
2022-10-18T09:51:20.810Z,15.90
2022-10-18T09:54:03.174Z,15.70
2022-10-18T09:56:35.599Z,16.00
2022-10-18T09:59:16.525Z,15.90
2022-10-18T10:01:43.251Z,16.00
2022-10-18T10:04:09.832Z,16.00
2022-10-18T10:06:38.280Z,16.10
2022-10-18T10:09:07.476Z,16.10
2022-10-18T10:11:39.571Z,16.30
2022-10-18T10:14:13.090Z,16.00
2022-10-18T10:16:48.562Z,16.00
2022-10-18T10:19:26.109Z,16.10
2022-10-18T10:21:58.610Z,15.90
2022-10-18T10:24:32.607Z,16.10
2022-10-18T10:27:01.926Z,16.10
2022-10-18T10:29:55.773Z,16.20
2022-10-18T10:32:24.648Z,16.10
2022-10-18T10:34:51.651Z,16.00
2022-10-18T10:37:28.108Z,16.00
2022-10-18T10:40:20.324Z,16.20
2022-10-18T10:43:04.260Z,16.00
2022-10-18T10:45:54.875Z,16.30
2022-10-18T10:48:22.033Z,16.00
2022-10-18T10:50:59.552Z,15.80
2022-10-18T10:53:41.556Z,16.10
2022-10-18T10:56:18.168Z,16.10
2022-10-18T10:58:45.139Z,16.20
2022-10-18T11:01:19.547Z,16.20
2022-10-18T11:03:48.231Z,17.90
2022-10-18T11:06:31.982Z,16.40
2022-10-18T11:09:03.245Z,16.60
2022-10-18T11:11:35.921Z,16.40
2022-10-18T11:14:26.304Z,16.70
2022-10-18T11:17:04.241Z,16.50
2022-10-18T11:19:39.222Z,16.60
2022-10-18T11:22:12.932Z,16.30
2022-10-18T11:24:40.288Z,16.30
2022-10-18T11:27:13.199Z,16.30
2022-10-18T11:29:59.029Z,16.30
2022-10-18T11:32:33.989Z,16.30
2022-10-18T11:35:21.816Z,16.40
2022-10-18T11:37:59.369Z,16.20
2022-10-18T11:40:42.270Z,16.10
2022-10-18T11:43:16.573Z,16.20
2022-10-18T11:45:49.093Z,15.90
2022-10-18T11:48:36.937Z,16.10
2022-10-18T11:51:10.708Z,16.30
2022-10-18T11:53:45.284Z,16.30
2022-10-18T11:56:20.946Z,16.00
2022-10-18T11:59:05.416Z,16.00
2022-10-18T12:01:39.239Z,16.00
2022-10-18T12:04:11.024Z,16.10
2022-10-18T12:06:39.958Z,16.10
2022-10-18T12:09:16.899Z,16.30
2022-10-18T12:11:54.875Z,16.40
2022-10-18T12:14:26.787Z,16.50
2022-10-18T12:17:19.039Z,16.50
2022-10-18T12:19:46.103Z,16.40
2022-10-18T12:22:18.127Z,16.30
2022-10-18T12:24:44.904Z,16.30
2022-10-18T12:27:14.747Z,16.20
2022-10-18T12:29:50.523Z,16.20
2022-10-18T12:32:21.987Z,16.20
2022-10-18T12:34:52.692Z,16.10
2022-10-18T12:37:50.428Z,16.20
2022-10-18T12:40:21.615Z,16.20
2022-10-18T12:42:51.665Z,16.30
2022-10-18T12:45:26.043Z,16.40
2022-10-18T12:47:54.173Z,16.30
2022-10-18T12:50:33.277Z,16.20
2022-10-18T12:53:05.887Z,16.30
2022-10-18T12:55:36.207Z,16.30
2022-10-18T12:58:26.726Z,16.50
2022-10-18T13:01:01.830Z,16.40
2022-10-18T13:03:49.585Z,16.50
2022-10-18T13:06:16.362Z,16.60
2022-10-18T13:08:45.215Z,16.60
2022-10-18T13:11:35.016Z,16.60
2022-10-18T13:14:59.081Z,16.60
2022-10-18T13:17:38.596Z,16.70
2022-10-18T13:20:26.125Z,16.60
2022-10-18T13:23:05.465Z,16.60
2022-10-18T13:25:46.483Z,16.70
2022-10-18T13:28:22.453Z,16.80
2022-10-18T13:30:57.347Z,16.60
2022-10-18T13:33:33.403Z,16.70
2022-10-18T13:36:03.335Z,16.80
2022-10-18T13:38:57.966Z,17.10
2022-10-18T13:41:27.559Z,17.20
2022-10-18T13:44:24.169Z,17.30
2022-10-18T13:47:35.928Z,17.20
2022-10-18T13:50:35.863Z,17.20
2022-10-18T13:53:34.795Z,17.40
2022-10-18T13:56:34.310Z,17.80
2022-10-18T13:59:17.593Z,19.20
2022-10-18T14:02:00.678Z,21.10
2022-10-18T14:05:10.605Z,21.80
2022-10-18T14:07:44.212Z,20.70
2022-10-18T14:10:21.189Z,19.40
2022-10-18T14:12:53.929Z,18.50
2022-10-18T14:15:24.236Z,17.90
2022-10-18T14:17:56.017Z,17.60
2022-10-18T14:20:29.353Z,17.60
2022-10-18T14:23:03.794Z,17.70
2022-10-18T14:25:34.763Z,17.60
2022-10-18T14:28:10.056Z,17.50
2022-10-18T14:30:52.270Z,17.20
2022-10-18T14:33:30.269Z,17.10
2022-10-18T14:36:03.418Z,16.80
2022-10-18T14:38:31.248Z,17.00
2022-10-18T14:41:06.847Z,16.70
2022-10-18T14:43:33.508Z,16.70
2022-10-18T14:46:09.924Z,16.50
2022-10-18T14:48:36.549Z,16.80
2022-10-18T14:51:06.840Z,16.70
2022-10-18T14:53:38.777Z,16.60
2022-10-18T14:56:20.504Z,16.60
2022-10-18T14:58:49.823Z,16.50
2022-10-18T15:01:18.918Z,16.50
2022-10-18T15:03:46.636Z,16.50
2022-10-18T15:06:17.631Z,16.40
2022-10-18T15:08:49.957Z,16.30
2022-10-18T15:11:16.975Z,16.40
2022-10-18T15:13:48.960Z,16.30
2022-10-18T15:16:17.225Z,16.30
2022-10-18T15:18:43.982Z,16.40
2022-10-18T15:21:21.609Z,16.60
2022-10-18T15:23:49.558Z,16.60
2022-10-18T15:26:22.330Z,16.60
2022-10-18T15:28:53.338Z,16.50
2022-10-18T15:31:27.546Z,16.40
2022-10-18T15:34:08.575Z,16.30
2022-10-18T15:36:36.091Z,16.30
2022-10-18T15:39:13.506Z,16.20
2022-10-18T15:41:44.435Z,16.20
2022-10-18T15:44:24.004Z,16.10
2022-10-18T15:46:52.775Z,16.00
2022-10-18T15:49:47.549Z,16.10
2022-10-18T15:52:38.763Z,16.00
2022-10-18T15:55:49.086Z,16.10
2022-10-18T15:58:21.457Z,15.80
2022-10-18T16:00:49.313Z,15.90
2022-10-18T16:03:18.076Z,15.80
2022-10-18T16:05:45.615Z,15.70
2022-10-18T16:08:24.243Z,16.50
2022-10-18T16:10:52.051Z,15.70
2022-10-18T16:13:19.028Z,15.70
2022-10-18T16:15:46.327Z,15.60
2022-10-18T16:18:17.588Z,15.70
2022-10-18T16:20:44.923Z,15.50
2022-10-18T16:23:17.751Z,15.50
2022-10-18T16:25:44.859Z,15.50
2022-10-18T16:28:15.751Z,15.40
2022-10-18T16:30:44.690Z,15.40
2022-10-18T16:33:11.495Z,15.20
2022-10-18T16:35:38.761Z,15.40
2022-10-18T16:38:06.287Z,15.30
2022-10-18T16:40:34.592Z,15.20
2022-10-18T16:43:03.121Z,15.30
2022-10-18T16:45:30.955Z,15.40
2022-10-18T16:47:57.722Z,15.30
2022-10-18T16:50:24.592Z,15.20
2022-10-18T16:52:54.700Z,15.20
2022-10-18T16:55:24.356Z,15.10
2022-10-18T16:57:51.445Z,15.10
2022-10-18T17:00:20.693Z,15.10
2022-10-18T17:02:51.708Z,15.00
2022-10-18T17:05:19.459Z,15.10
2022-10-18T17:07:46.946Z,15.00
2022-10-18T17:10:14.925Z,15.00
2022-10-18T17:12:42.139Z,15.00
2022-10-18T17:15:09.657Z,15.00
2022-10-18T17:17:37.681Z,15.00
2022-10-18T17:20:06.886Z,15.00
2022-10-18T17:22:34.076Z,14.90
2022-10-18T17:25:00.890Z,14.90
2022-10-18T17:27:27.776Z,14.60
2022-10-18T17:29:54.375Z,14.20
2022-10-18T17:32:20.958Z,15.00
2022-10-18T17:34:47.577Z,14.80
2022-10-18T17:37:15.035Z,14.80
2022-10-18T17:39:43.137Z,14.70
2022-10-18T17:42:09.984Z,14.60
2022-10-18T17:44:36.733Z,14.90
2022-10-18T17:47:03.497Z,14.50
2022-10-18T17:49:30.285Z,14.50
2022-10-18T17:51:56.854Z,14.50
2022-10-18T17:54:24.130Z,14.40
2022-10-18T17:56:53.816Z,14.30
2022-10-18T17:59:21.491Z,14.20
2022-10-18T18:01:48.252Z,14.20
2022-10-18T18:04:16.354Z,14.10
2022-10-18T18:06:44.725Z,14.10
2022-10-18T18:09:14.775Z,14.10
2022-10-18T18:11:44.279Z,14.00
2022-10-18T18:14:12.572Z,13.90
2022-10-18T18:16:40.702Z,13.90
2022-10-18T18:19:09.906Z,14.00
2022-10-18T18:21:37.659Z,13.90
2022-10-18T18:24:04.741Z,13.80
2022-10-18T18:26:31.978Z,13.80
2022-10-18T18:28:59.750Z,13.70
2022-10-18T18:31:30.705Z,13.70
2022-10-18T18:34:01.301Z,13.70
2022-10-18T18:36:28.571Z,13.80
2022-10-18T18:38:57.079Z,13.80
2022-10-18T18:41:26.018Z,13.80
2022-10-18T18:43:54.594Z,13.70
2022-10-18T18:46:22.748Z,13.80
2022-10-18T18:48:49.421Z,13.80
2022-10-18T18:51:17.882Z,13.70
2022-10-18T18:53:45.982Z,13.80
2022-10-18T18:56:14.483Z,14.00
2022-10-18T18:58:43.510Z,14.00
2022-10-18T19:01:11.742Z,14.00
2022-10-18T19:03:39.969Z,14.00
2022-10-18T19:06:08.360Z,14.00
2022-10-18T19:08:36.276Z,14.10
2022-10-18T19:11:08.036Z,13.60
2022-10-18T19:13:36.249Z,14.10
2022-10-18T19:16:24.647Z,14.30
2022-10-18T19:18:54.558Z,14.10
2022-10-18T19:21:21.609Z,14.10
2022-10-18T19:23:49.432Z,14.10
2022-10-18T19:26:28.191Z,14.00
2022-10-18T19:28:55.563Z,14.00
2022-10-18T19:31:22.976Z,14.00
2022-10-18T19:33:59.438Z,14.00
2022-10-18T19:36:28.052Z,14.00
2022-10-18T19:38:54.722Z,13.90
2022-10-18T19:41:22.949Z,13.90
2022-10-18T19:43:49.579Z,13.90
2022-10-18T19:46:16.223Z,13.80
2022-10-18T19:48:43.120Z,13.80
2022-10-18T19:51:10.382Z,13.80
2022-10-18T19:53:38.242Z,13.70
2022-10-18T19:56:06.842Z,13.70
2022-10-18T19:58:33.853Z,13.70
2022-10-18T20:01:01.645Z,13.80
2022-10-18T20:03:29.830Z,13.60
2022-10-18T20:05:57.809Z,13.60
2022-10-18T20:08:25.595Z,13.50
2022-10-18T20:10:53.048Z,13.50
2022-10-18T20:13:21.442Z,13.40
2022-10-18T20:15:48.948Z,13.60
2022-10-18T20:18:16.132Z,13.40
2022-10-18T20:20:47.251Z,13.40
2022-10-18T20:23:15.365Z,13.40
2022-10-18T20:25:42.541Z,12.70
2022-10-18T20:28:10.214Z,13.50
2022-10-18T20:30:37.122Z,13.30
2022-10-18T20:33:04.440Z,13.30
2022-10-18T20:35:31.709Z,13.20
2022-10-18T20:37:58.279Z,13.30
2022-10-18T20:40:25.604Z,13.30
2022-10-18T20:42:52.749Z,13.20
2022-10-18T20:45:20.261Z,13.20
2022-10-18T20:47:46.974Z,13.10
2022-10-18T20:50:13.918Z,13.10
2022-10-18T20:52:40.469Z,13.20
2022-10-18T20:55:07.608Z,13.30
2022-10-18T20:57:36.527Z,13.10
2022-10-18T21:00:05.483Z,13.10
2022-10-18T21:02:33.244Z,13.00
2022-10-18T21:04:59.954Z,13.00
2022-10-18T21:07:26.555Z,13.00
2022-10-18T21:09:53.172Z,12.60
2022-10-18T21:12:20.088Z,13.00
2022-10-18T21:14:46.806Z,12.90
2022-10-18T21:17:15.662Z,12.90
2022-10-18T21:19:42.971Z,12.90
2022-10-18T21:22:09.965Z,12.80
2022-10-18T21:24:36.818Z,11.30
2022-10-18T21:27:03.776Z,12.80
2022-10-18T21:29:30.638Z,12.80
2022-10-18T21:31:58.929Z,12.80
2022-10-18T21:34:25.941Z,12.70
2022-10-18T21:36:53.175Z,12.30
2022-10-18T21:41:53.873Z,12.70
2022-10-18T21:44:20.668Z,12.30
2022-10-18T21:46:47.371Z,12.60
2022-10-18T21:49:14.859Z,13.10
2022-10-18T21:51:41.892Z,12.50
2022-10-18T21:54:12.451Z,12.50
2022-10-18T21:56:40.140Z,12.50
2022-10-18T21:59:07.497Z,12.50
2022-10-18T22:01:35.882Z,12.70
2022-10-18T22:04:04.240Z,12.50
2022-10-18T22:06:33.142Z,12.50
2022-10-18T22:09:04.687Z,12.10
2022-10-18T22:11:33.887Z,12.40
2022-10-18T22:14:00.766Z,12.40
2022-10-18T22:16:28.147Z,12.40
2022-10-18T22:18:58.723Z,12.40
2022-10-18T22:21:25.763Z,12.40
2022-10-18T22:23:54.034Z,12.40
2022-10-18T22:26:22.427Z,12.50
2022-10-18T22:28:55.439Z,12.40
2022-10-18T22:31:24.260Z,12.40
2022-10-18T22:33:53.089Z,12.60
2022-10-18T22:36:19.773Z,12.40
2022-10-18T22:38:47.620Z,12.40
2022-10-18T22:41:14.426Z,12.40
2022-10-18T22:43:41.071Z,12.40
2022-10-18T22:46:10.971Z,12.50
2022-10-18T22:48:38.177Z,12.60
2022-10-18T22:51:05.292Z,12.60
2022-10-18T22:53:33.084Z,12.60
2022-10-18T22:55:59.624Z,12.70
2022-10-18T22:58:26.496Z,12.70
2022-10-18T23:01:00.379Z,12.70
2022-10-18T23:03:27.753Z,13.00
2022-10-18T23:05:54.407Z,12.80
2022-10-18T23:08:21.661Z,12.60
2022-10-18T23:10:51.713Z,12.80
2022-10-18T23:13:18.384Z,12.90
2022-10-18T23:15:44.998Z,12.90
2022-10-18T23:18:11.521Z,12.90
2022-10-18T23:20:38.770Z,12.80
2022-10-18T23:23:05.453Z,12.80
2022-10-18T23:25:35.420Z,12.60
2022-10-18T23:28:02.076Z,12.80
2022-10-18T23:30:28.680Z,12.80
2022-10-18T23:32:55.699Z,12.80
2022-10-18T23:35:22.883Z,12.80
2022-10-18T23:37:51.274Z,12.90
2022-10-18T23:40:18.091Z,13.00
2022-10-18T23:42:44.997Z,12.80
2022-10-18T23:45:11.596Z,12.80
2022-10-18T23:47:38.163Z,12.50
2022-10-18T23:50:05.675Z,12.60
2022-10-18T23:52:32.266Z,12.80
2022-10-18T23:54:59.524Z,12.80
2022-10-18T23:57:26.070Z,12.80
2022-10-18T23:59:52.664Z,13.10
